createdAt,value
2019-05-18T00:00:31.009Z,98240.72
2019-05-18T00:03:01.905Z,98236.73
2019-05-18T00:05:32.176Z,98227.77
2019-05-18T00:08:02.461Z,98214.14
2019-05-18T00:10:33.526Z,98231.75
2019-05-18T00:13:03.843Z,98253.68
2019-05-18T00:15:34.159Z,98237.07
2019-05-18T00:18:04.545Z,98207.02
2019-05-18T00:20:34.889Z,98192.23
2019-05-18T00:23:05.184Z,98241.39
2019-05-18T00:25:35.935Z,98247.20
2019-05-18T00:28:06.227Z,98241.72
2019-05-18T00:30:36.530Z,98295.25
2019-05-18T00:33:07.145Z,98349.59
2019-05-18T00:35:37.554Z,98464.19
2019-05-18T00:38:08.196Z,98541.41
2019-05-18T00:40:38.643Z,98622.53
2019-05-18T00:43:08.977Z,98640.67
2019-05-18T00:45:39.325Z,98708.29
2019-05-18T00:48:10.510Z,98714.95
2019-05-18T00:50:42.504Z,98731.31
2019-05-18T00:53:12.852Z,98712.95
2019-05-18T00:55:43.150Z,98759.13
2019-05-18T00:58:13.806Z,98748.30
2019-05-18T01:00:44.164Z,98743.64
2019-05-18T01:03:14.620Z,98737.97
2019-05-18T01:05:46.363Z,98736.31
2019-05-18T01:08:17.325Z,98747.80
2019-05-18T01:10:48.546Z,98731.28
2019-05-18T01:13:19.187Z,98738.97
2019-05-18T01:15:49.511Z,98722.78
2019-05-18T01:18:19.621Z,98688.63
2019-05-18T01:20:52.335Z,98660.66
2019-05-18T01:23:22.669Z,98634.35
2019-05-18T01:25:53.413Z,98586.51
2019-05-18T01:28:24.576Z,98575.69
2019-05-18T01:30:54.857Z,98613.17
2019-05-18T01:33:25.171Z,98591.67
2019-05-18T01:35:55.895Z,98583.52
2019-05-18T01:38:26.250Z,98575.69
2019-05-18T01:40:56.850Z,98607.69
2019-05-18T01:43:27.431Z,98653.83
2019-05-18T01:45:57.741Z,98602.66
2019-05-18T01:48:29.470Z,98590.17
2019-05-18T01:51:01.376Z,98555.05
2019-05-18T01:53:33.773Z,98525.41
2019-05-18T01:56:04.086Z,98514.92
2019-05-18T01:58:34.347Z,98522.74
2019-05-18T02:01:04.625Z,98513.09
2019-05-18T02:03:35.285Z,98497.13
2019-05-18T02:06:05.689Z,98463.86
2019-05-18T02:08:40.457Z,98456.54
2019-05-18T02:11:11.132Z,98406.63
2019-05-18T02:13:41.391Z,98331.16
2019-05-18T02:16:13.393Z,98268.65
2019-05-18T02:18:43.748Z,98307.69
2019-05-18T02:21:14.417Z,98252.54
2019-05-18T02:23:45.211Z,98157.68
2019-05-18T02:26:15.521Z,98099.22
2019-05-18T02:28:46.211Z,98038.16
2019-05-18T02:31:16.581Z,98012.92
2019-05-18T02:33:49.197Z,97933.61
2019-05-18T02:36:19.518Z,97975.91
2019-05-18T02:38:50.110Z,97942.41
2019-05-18T02:41:23.780Z,97923.00
2019-05-18T02:43:56.587Z,97920.69
2019-05-18T02:46:31.222Z,97922.18
2019-05-18T02:49:01.521Z,97949.20
2019-05-18T02:51:31.626Z,98032.33
2019-05-18T02:54:03.174Z,98065.87
2019-05-18T02:56:35.801Z,98097.23
2019-05-18T02:59:07.892Z,98146.40
2019-05-18T03:01:38.439Z,98190.56
2019-05-18T03:04:08.970Z,98217.80
2019-05-18T03:06:39.235Z,98260.02
2019-05-18T03:09:12.090Z,98254.86
2019-05-18T03:11:42.468Z,98284.93
2019-05-18T03:14:13.440Z,98308.19
2019-05-18T03:16:44.170Z,98380.03
2019-05-18T03:19:15.686Z,98442.88
2019-05-18T03:21:46.427Z,98504.11
2019-05-18T03:24:22.426Z,98553.69
2019-05-18T03:26:52.766Z,98583.18
2019-05-18T03:29:23.462Z,98605.14
2019-05-18T03:31:53.783Z,98662.61
2019-05-18T03:34:24.043Z,98637.61
2019-05-18T03:36:54.529Z,98671.64
2019-05-18T03:39:25.474Z,98640.97
2019-05-18T03:41:55.705Z,98551.03
2019-05-18T03:44:25.971Z,98487.81
2019-05-18T03:46:56.458Z,98455.18
2019-05-18T03:49:27.817Z,98455.84
2019-05-18T03:51:58.300Z,98461.83
2019-05-18T03:54:28.632Z,98526.06
2019-05-18T03:56:58.975Z,98579.19
2019-05-18T03:59:30.699Z,98648.59
2019-05-18T04:02:01.092Z,98754.75
2019-05-18T04:04:33.020Z,98826.43
2019-05-18T04:07:03.337Z,98923.32
2019-05-18T04:09:33.656Z,98974.02
2019-05-18T04:12:03.906Z,99042.30
2019-05-18T04:14:34.391Z,99112.05
2019-05-18T04:17:04.759Z,99202.96
2019-05-18T04:19:45.510Z,99215.16
2019-05-18T04:22:07.054Z,99222.50
2019-05-18T04:24:37.389Z,99211.47
2019-05-18T04:27:09.606Z,99227.01
2019-05-18T04:29:39.899Z,99223.00
2019-05-18T04:32:11.304Z,99260.11
2019-05-18T04:34:41.576Z,99269.30
2019-05-18T04:37:12.231Z,99351.90
2019-05-18T04:39:42.837Z,99414.42
2019-05-18T04:42:13.546Z,99450.88
2019-05-18T04:44:43.927Z,99466.60
2019-05-18T04:47:14.575Z,99527.37
2019-05-18T04:50:04.439Z,99548.94
2019-05-18T04:52:24.457Z,99565.69
2019-05-18T04:54:55.083Z,99637.02
2019-05-18T04:57:25.858Z,99628.81
2019-05-18T04:59:56.559Z,99657.45
2019-05-18T05:02:26.887Z,99636.87
2019-05-18T05:04:57.182Z,99654.44
2019-05-18T05:07:27.524Z,99638.02
2019-05-18T05:09:59.025Z,99701.02
2019-05-18T05:12:29.638Z,99759.69
2019-05-18T05:15:00.915Z,99784.48
2019-05-18T05:17:31.234Z,99845.36
2019-05-18T05:20:01.534Z,99810.63
2019-05-18T05:22:32.043Z,99878.39
2019-05-18T05:25:03.159Z,99895.83
2019-05-18T05:27:33.463Z,99924.16
2019-05-18T05:30:04.190Z,99879.05
2019-05-18T05:32:35.360Z,99921.64
2019-05-18T05:35:10.659Z,99960.06
2019-05-18T05:37:40.998Z,99966.95
2019-05-18T05:40:12.205Z,99952.34
2019-05-18T05:42:43.839Z,99984.05
2019-05-18T05:45:16.245Z,100081.23
2019-05-18T05:47:46.700Z,100063.63
2019-05-18T05:50:34.140Z,100071.17
2019-05-18T05:52:51.638Z,100078.71
2019-05-18T05:55:24.269Z,100103.89
2019-05-18T05:57:55.146Z,100127.55
2019-05-18T06:00:25.457Z,100141.49
2019-05-18T06:02:55.810Z,100228.56
2019-05-18T06:05:26.216Z,100248.22
2019-05-18T06:07:56.518Z,100340.34
2019-05-18T06:10:26.862Z,100430.31
2019-05-18T06:12:57.486Z,100431.66
2019-05-18T06:15:28.229Z,100449.14
2019-05-18T06:17:59.665Z,100466.28
2019-05-18T06:20:30.337Z,100492.22
2019-05-18T06:23:00.682Z,100397.30
2019-05-18T06:25:34.229Z,100331.41
2019-05-18T06:28:03.043Z,100325.84
2019-05-18T06:30:33.378Z,100298.75
2019-05-18T06:33:04.072Z,100302.78
2019-05-18T06:35:35.126Z,100250.86
2019-05-18T06:38:05.572Z,100162.89
2019-05-18T06:40:35.954Z,100192.53
2019-05-18T06:43:06.683Z,100182.23
2019-05-18T06:45:37.070Z,100221.44
2019-05-18T06:48:09.291Z,100230.17
2019-05-18T06:50:39.589Z,100296.72
2019-05-18T06:53:09.742Z,100292.50
2019-05-18T06:55:42.064Z,100277.86
2019-05-18T06:58:12.569Z,100295.69
2019-05-18T07:00:42.915Z,100200.57
2019-05-18T07:03:13.226Z,100212.83
2019-05-18T07:05:45.540Z,100251.31
2019-05-18T07:08:16.438Z,100235.19
2019-05-18T07:10:46.760Z,100104.09
2019-05-18T07:13:19.158Z,100060.12
2019-05-18T07:15:49.496Z,100034.79
2019-05-18T07:18:23.597Z,99964.09
2019-05-18T07:20:57.476Z,99997.37
2019-05-18T07:23:27.765Z,100021.02
2019-05-18T07:25:58.069Z,100049.71
2019-05-18T07:28:28.717Z,100045.00
2019-05-18T07:30:58.984Z,100126.45
2019-05-18T07:33:31.551Z,100117.72
2019-05-18T07:36:01.920Z,100225.38
2019-05-18T07:38:32.865Z,100197.47
2019-05-18T07:41:03.205Z,100181.00
2019-05-18T07:43:36.221Z,100139.53
2019-05-18T07:46:08.752Z,100238.52
2019-05-18T07:48:38.577Z,100197.13
2019-05-18T07:51:09.022Z,100233.80
2019-05-18T07:53:39.428Z,100285.72
2019-05-18T07:56:10.109Z,100390.80
2019-05-18T07:58:43.673Z,100372.83
2019-05-18T08:01:13.994Z,100469.72
2019-05-18T08:03:44.355Z,100434.86
2019-05-18T08:06:15.077Z,100640.20
2019-05-18T08:08:45.893Z,100870.12
2019-05-18T08:11:18.023Z,101028.03
2019-05-18T08:13:48.414Z,101162.79
2019-05-18T08:16:25.804Z,101198.26
2019-05-18T08:18:58.197Z,101171.56
2019-05-18T08:21:29.034Z,101321.60
2019-05-18T08:23:59.375Z,101426.09
2019-05-18T08:26:29.976Z,101570.98
2019-05-18T08:29:01.646Z,101793.88
2019-05-18T08:31:32.154Z,102516.25
2019-05-18T08:34:03.661Z,102788.78
2019-05-18T08:36:36.597Z,103325.23
2019-05-18T08:39:10.093Z,103596.48
2019-05-18T08:41:41.482Z,103622.42
2019-05-18T08:44:11.856Z,103757.14
2019-05-18T08:46:42.283Z,103707.59
2019-05-18T08:49:12.831Z,103545.70
2019-05-18T08:51:43.205Z,103523.23
2019-05-18T08:54:13.472Z,102862.53
2019-05-18T08:56:44.351Z,102419.17
2019-05-18T08:59:14.784Z,101880.64
2019-05-18T09:01:45.081Z,101632.06
2019-05-18T09:04:16.809Z,101722.89
2019-05-18T09:06:47.763Z,101706.98
2019-05-18T09:09:18.091Z,101723.39
2019-05-18T09:11:51.365Z,101681.57
2019-05-18T09:14:23.776Z,101444.74
2019-05-18T09:16:54.079Z,101461.47
2019-05-18T09:19:24.738Z,101373.83
2019-05-18T09:21:55.173Z,101494.83
2019-05-18T09:24:25.691Z,101733.05
2019-05-18T09:26:56.099Z,102188.72
2019-05-18T09:29:28.081Z,102521.45
2019-05-18T09:31:58.404Z,102674.46
2019-05-18T09:34:29.128Z,102362.33
2019-05-18T09:37:02.635Z,102390.09
2019-05-18T09:39:33.336Z,102483.74
2019-05-18T09:42:06.698Z,102580.09
2019-05-18T09:44:37.534Z,102917.45
2019-05-18T09:47:07.873Z,103367.93
2019-05-18T09:49:38.537Z,103936.66
2019-05-18T09:52:13.988Z,104182.25
2019-05-18T09:54:46.665Z,104541.98
2019-05-18T09:57:21.910Z,104179.77
2019-05-18T09:59:52.212Z,103665.92
2019-05-18T10:02:24.996Z,103950.63
2019-05-18T10:04:55.435Z,103724.77
2019-05-18T10:07:26.822Z,103454.06
2019-05-18T10:09:58.525Z,103238.80
2019-05-18T10:12:30.208Z,103370.03
2019-05-18T10:15:00.553Z,103241.02
2019-05-18T10:17:31.309Z,103496.55
2019-05-18T10:20:01.613Z,103929.35
2019-05-18T10:22:55.514Z,104347.14
2019-05-18T10:25:18.685Z,104285.50
2019-05-18T10:27:49.100Z,104366.85
2019-05-18T10:30:20.348Z,104341.02
2019-05-18T10:32:53.064Z,104781.48
2019-05-18T10:35:23.979Z,105211.04
2019-05-18T10:37:56.210Z,105173.44
2019-05-18T10:40:26.564Z,105318.35
2019-05-18T10:42:57.086Z,105525.63
2019-05-18T10:45:27.388Z,105584.65
2019-05-18T10:48:00.186Z,105066.46
2019-05-18T10:50:31.834Z,105329.07
2019-05-18T10:53:02.218Z,105867.95
2019-05-18T10:55:32.533Z,105856.22
2019-05-18T10:58:04.016Z,105508.66
2019-05-18T11:00:34.603Z,104887.28
2019-05-18T11:03:05.057Z,105129.38
2019-05-18T11:05:35.399Z,105338.05
2019-05-18T11:08:05.702Z,105395.04
2019-05-18T11:10:36.795Z,104904.09
2019-05-18T11:13:07.145Z,105162.11
2019-05-18T11:15:37.290Z,105539.10
2019-05-18T11:18:07.660Z,105658.38
2019-05-18T11:20:38.822Z,105253.94
2019-05-18T11:23:09.214Z,104280.29
2019-05-18T11:25:42.611Z,103703.23
2019-05-18T11:28:14.701Z,103483.34
2019-05-18T11:30:45.627Z,103453.44
2019-05-18T11:33:15.932Z,103859.59
2019-05-18T11:35:46.279Z,104377.42
2019-05-18T11:38:16.930Z,104337.73
2019-05-18T11:40:49.085Z,104525.61
2019-05-18T11:43:19.366Z,104886.48
2019-05-18T11:45:50.057Z,104709.47
2019-05-18T11:48:20.374Z,104338.61
2019-05-18T11:50:50.740Z,104256.89
2019-05-18T11:53:21.228Z,104280.56
2019-05-18T11:55:53.348Z,104396.92
2019-05-18T11:58:25.682Z,104283.66
2019-05-18T12:00:56.039Z,104025.30
2019-05-18T12:03:26.320Z,104035.57
2019-05-18T12:05:56.716Z,103746.64
2019-05-18T12:08:27.030Z,103714.63
2019-05-18T12:10:58.014Z,103309.55
2019-05-18T12:13:30.559Z,103329.44
2019-05-18T12:16:00.839Z,103520.14
2019-05-18T12:18:31.647Z,103519.77
2019-05-18T12:21:04.257Z,103398.88
2019-05-18T12:23:34.899Z,103334.61
2019-05-18T12:26:06.364Z,103201.55
2019-05-18T12:28:36.684Z,103238.27
2019-05-18T12:31:07.099Z,103212.02
2019-05-18T12:33:40.589Z,103389.87
2019-05-18T12:36:10.934Z,103431.23
2019-05-18T12:38:41.812Z,103682.98
2019-05-18T12:41:12.096Z,103787.99
2019-05-18T12:43:44.677Z,103929.02
2019-05-18T12:46:15.454Z,103902.80
2019-05-18T12:48:45.821Z,103820.88
2019-05-18T12:51:21.478Z,103686.58
2019-05-18T12:53:51.728Z,103648.27
2019-05-18T12:56:22.368Z,103649.50
2019-05-18T12:58:56.358Z,103534.98
2019-05-18T13:01:26.680Z,103810.87
2019-05-18T13:03:59.945Z,104148.00
2019-05-18T13:06:30.271Z,104069.20
2019-05-18T13:09:00.747Z,103781.69
2019-05-18T13:11:32.643Z,103807.77
2019-05-18T13:14:03.855Z,103914.17
2019-05-18T13:16:35.011Z,103923.83
2019-05-18T13:19:06.631Z,103549.92
2019-05-18T13:21:37.014Z,103812.84
2019-05-18T13:24:08.290Z,104022.98
2019-05-18T13:26:41.822Z,104485.13
2019-05-18T13:29:13.540Z,104522.23
2019-05-18T13:31:43.956Z,104280.00
2019-05-18T13:34:14.600Z,104307.53
2019-05-18T13:36:44.957Z,103722.66
2019-05-18T13:39:15.257Z,103571.03
2019-05-18T13:41:47.058Z,103308.69
2019-05-18T13:44:17.921Z,103749.17
2019-05-18T13:46:48.468Z,103460.25
2019-05-18T13:49:24.728Z,103259.83
2019-05-18T13:51:55.256Z,102920.60
2019-05-18T13:54:25.845Z,102815.25
2019-05-18T13:56:56.503Z,103048.05
2019-05-18T13:59:27.250Z,103138.53
2019-05-18T14:01:57.855Z,103048.55
2019-05-18T14:04:32.201Z,103042.39
2019-05-18T14:07:03.666Z,103126.42
2019-05-18T14:09:35.167Z,102960.58
2019-05-18T14:12:09.162Z,102679.80
2019-05-18T14:14:39.546Z,102634.03
2019-05-18T14:17:09.846Z,102802.06
2019-05-18T14:19:40.230Z,103038.42
2019-05-18T14:22:11.376Z,103156.88
2019-05-18T14:24:43.281Z,103152.94
2019-05-18T14:27:14.398Z,103389.25
2019-05-18T14:29:44.734Z,102930.92
2019-05-18T14:32:18.628Z,103401.95
2019-05-18T14:34:48.951Z,103292.14
2019-05-18T14:37:22.166Z,102760.92
2019-05-18T14:39:54.552Z,102639.32
2019-05-18T14:42:25.080Z,102587.95
2019-05-18T14:44:55.842Z,102609.21
2019-05-18T14:47:28.106Z,102663.42
2019-05-18T14:49:59.170Z,102907.87
2019-05-18T14:52:29.514Z,103191.48
2019-05-18T14:54:59.840Z,103484.82
2019-05-18T14:57:31.069Z,103645.28
2019-05-18T15:00:02.523Z,103502.60
2019-05-18T15:02:33.096Z,103124.47
2019-05-18T15:05:03.372Z,102706.45
2019-05-18T15:07:34.045Z,102425.79
2019-05-18T15:10:05.785Z,102302.69
2019-05-18T15:12:39.233Z,102287.59
2019-05-18T15:15:11.012Z,102075.70
2019-05-18T15:17:50.908Z,101994.08
2019-05-18T15:20:22.959Z,101815.34
2019-05-18T15:22:54.855Z,101756.82
2019-05-18T15:25:25.209Z,101667.53
2019-05-18T15:27:57.081Z,101621.83
2019-05-18T15:30:27.506Z,101585.42
2019-05-18T15:32:58.420Z,101544.59
2019-05-18T15:35:28.762Z,101515.30
2019-05-18T15:37:59.230Z,101594.57
2019-05-18T15:40:29.961Z,101695.40
2019-05-18T15:43:02.577Z,101729.91
2019-05-18T15:45:33.250Z,101687.55
2019-05-18T15:48:03.573Z,101693.70
2019-05-18T15:50:33.888Z,101904.18
2019-05-18T15:53:04.240Z,101916.41
2019-05-18T15:55:35.527Z,101980.44
2019-05-18T15:58:06.266Z,101917.63
2019-05-18T16:00:36.969Z,101743.47
2019-05-18T16:03:09.642Z,101558.70
2019-05-18T16:05:42.279Z,101491.17
2019-05-18T16:08:13.275Z,101486.78
2019-05-18T16:10:43.450Z,101581.09
2019-05-18T16:13:15.318Z,101759.13
2019-05-18T16:15:47.265Z,101734.52
2019-05-18T16:18:17.705Z,101721.31
2019-05-18T16:20:49.366Z,101493.38
2019-05-18T16:23:19.788Z,101455.01
2019-05-18T16:25:50.363Z,101489.33
2019-05-18T16:28:21.306Z,101488.34
2019-05-18T16:30:53.254Z,101433.00
2019-05-18T16:33:23.569Z,101415.55
2019-05-18T16:35:56.947Z,101401.88
2019-05-18T16:38:27.284Z,101352.80
2019-05-18T16:40:59.610Z,101312.38
2019-05-18T16:43:31.467Z,101188.67
2019-05-18T16:46:02.837Z,101060.82
2019-05-18T16:48:33.228Z,100950.91
2019-05-18T16:51:04.280Z,100948.02
2019-05-18T16:53:37.617Z,100901.14
2019-05-18T16:56:07.885Z,100776.38
2019-05-18T16:58:41.644Z,100674.39
2019-05-18T17:01:11.933Z,100591.52
2019-05-18T17:03:42.620Z,100649.17
2019-05-18T17:06:16.174Z,100643.08
2019-05-18T17:08:46.731Z,100484.13
2019-05-18T17:11:17.618Z,100347.69
2019-05-18T17:13:48.038Z,100325.34
2019-05-18T17:16:21.582Z,100301.73
2019-05-18T17:18:52.195Z,100300.09
2019-05-18T17:21:22.606Z,100337.11
2019-05-18T17:23:57.421Z,100292.05
2019-05-18T17:26:27.899Z,100277.33
2019-05-18T17:28:59.862Z,100278.95
2019-05-18T17:31:31.665Z,100323.01
2019-05-18T17:34:02.036Z,100302.47
2019-05-18T17:36:37.982Z,100275.57
2019-05-18T17:39:08.411Z,100253.73
2019-05-18T17:41:40.042Z,100275.08
2019-05-18T17:44:10.641Z,100232.74
2019-05-18T17:46:42.668Z,100270.55
2019-05-18T17:49:25.885Z,100256.77
2019-05-18T17:51:47.551Z,100271.05
2019-05-18T17:54:18.130Z,100247.18
2019-05-18T17:56:48.403Z,100128.20
2019-05-18T17:59:18.728Z,100121.31
2019-05-18T18:01:49.827Z,100140.11
2019-05-18T18:04:20.286Z,100200.64
2019-05-18T18:06:50.637Z,100201.98
2019-05-18T18:09:21.055Z,100218.11
2019-05-18T18:11:51.366Z,100219.45
2019-05-18T18:14:22.284Z,100179.74
2019-05-18T18:16:52.661Z,100095.63
2019-05-18T18:19:25.582Z,100129.36
2019-05-18T18:21:58.054Z,100086.06
2019-05-18T18:24:29.786Z,100094.44
2019-05-18T18:27:00.197Z,100060.84
2019-05-18T18:29:30.526Z,100064.22
2019-05-18T18:32:11.076Z,99985.02
2019-05-18T18:34:45.166Z,99957.29
2019-05-18T18:37:17.486Z,99951.93
2019-05-18T18:39:48.460Z,99927.77
2019-05-18T18:42:18.874Z,99902.45
2019-05-18T18:44:50.581Z,99942.38
2019-05-18T18:47:24.208Z,99872.59
2019-05-18T18:49:54.327Z,99864.84
2019-05-18T18:52:26.489Z,99864.22
2019-05-18T18:54:57.199Z,99832.66
2019-05-18T18:57:40.767Z,99814.73
2019-05-18T19:00:03.881Z,99818.59
2019-05-18T19:02:36.956Z,99810.87
2019-05-18T19:05:07.968Z,99774.00
2019-05-18T19:07:38.308Z,99774.69
2019-05-18T19:10:10.757Z,99748.12
2019-05-18T19:12:41.906Z,99710.95
2019-05-18T19:15:13.716Z,99685.32
2019-05-18T19:17:44.322Z,99674.94
2019-05-18T19:20:15.503Z,99625.16
2019-05-18T19:22:45.795Z,99653.17
2019-05-18T19:25:16.555Z,99614.13
2019-05-18T19:27:55.004Z,99619.81
2019-05-18T19:30:22.296Z,99607.09
2019-05-18T19:32:53.472Z,99598.21
2019-05-18T19:35:24.258Z,99553.86
2019-05-18T19:37:54.598Z,99553.86
2019-05-18T19:40:24.912Z,99531.74
2019-05-18T19:42:55.209Z,99526.05
2019-05-18T19:45:25.784Z,99508.81
2019-05-18T19:47:56.194Z,99486.58
2019-05-18T19:50:31.676Z,99487.57
2019-05-18T19:53:02.086Z,99485.23
2019-05-18T19:55:33.531Z,99489.25
2019-05-18T19:58:09.017Z,99470.02
2019-05-18T20:00:36.006Z,99483.22
2019-05-18T20:03:06.496Z,99463.16
2019-05-18T20:05:39.121Z,99440.42
2019-05-18T20:08:11.108Z,99418.81
2019-05-18T20:10:41.475Z,99425.36
2019-05-18T20:13:11.751Z,99417.97
2019-05-18T20:15:42.218Z,99426.20
2019-05-18T20:18:12.545Z,99395.06
2019-05-18T20:20:42.845Z,99382.52
2019-05-18T20:23:13.285Z,99360.80
2019-05-18T20:25:43.888Z,99355.61
2019-05-18T20:28:23.518Z,99381.69
2019-05-18T20:30:46.441Z,99406.77
2019-05-18T20:33:16.725Z,99381.69
2019-05-18T20:35:47.654Z,99339.72
2019-05-18T20:38:18.021Z,99343.57
2019-05-18T20:40:48.682Z,99363.63
2019-05-18T20:43:18.984Z,99340.06
2019-05-18T20:45:49.767Z,99350.42
2019-05-18T20:48:21.164Z,99316.79
2019-05-18T20:50:51.471Z,99357.28
2019-05-18T20:53:21.832Z,99337.55
2019-05-18T20:55:52.180Z,99311.95
2019-05-18T20:58:22.526Z,99341.89
2019-05-18T21:00:52.634Z,99355.42
2019-05-18T21:03:23.472Z,99346.73
2019-05-18T21:05:53.627Z,99354.43
2019-05-18T21:08:23.978Z,99373.98
2019-05-18T21:10:56.707Z,99388.55
2019-05-18T21:13:28.957Z,99380.84
2019-05-18T21:15:59.283Z,99369.64
2019-05-18T21:18:31.982Z,99336.38
2019-05-18T21:21:02.492Z,99361.11
2019-05-18T21:23:32.785Z,99334.20
2019-05-18T21:26:06.312Z,99347.58
2019-05-18T21:28:53.424Z,99396.22
2019-05-18T21:31:11.669Z,99342.39
2019-05-18T21:33:41.997Z,99349.41
2019-05-18T21:36:13.480Z,99369.64
2019-05-18T21:38:47.664Z,99387.02
2019-05-18T21:41:18.078Z,99405.25
2019-05-18T21:43:48.364Z,99419.28
2019-05-18T21:46:19.036Z,99446.92
2019-05-18T21:48:50.056Z,99434.84
2019-05-18T21:51:21.945Z,99472.83
2019-05-18T21:53:52.313Z,99452.76
2019-05-18T21:56:23.485Z,99477.52
2019-05-18T21:58:54.017Z,99515.31
2019-05-18T22:01:26.898Z,99529.02
2019-05-18T22:03:57.605Z,99541.25
2019-05-18T22:06:27.889Z,99581.28
2019-05-18T22:08:58.530Z,99578.95
2019-05-18T22:11:31.371Z,99560.98
2019-05-18T22:14:01.893Z,99549.11
2019-05-18T22:16:35.089Z,99606.55
2019-05-18T22:19:05.874Z,99604.03
2019-05-18T22:21:36.236Z,99568.72
2019-05-18T22:24:14.447Z,99562.81
2019-05-18T22:26:44.903Z,99572.23
2019-05-18T22:29:15.250Z,99548.93
2019-05-18T22:31:45.362Z,99519.32
2019-05-18T22:34:15.724Z,99492.39
2019-05-18T22:36:46.458Z,99437.17
2019-05-18T22:39:16.742Z,99440.34
2019-05-18T22:41:46.914Z,99419.44
2019-05-18T22:44:17.650Z,99374.46
2019-05-18T22:46:50.751Z,99374.13
2019-05-18T22:49:21.079Z,99383.49
2019-05-18T22:51:51.387Z,99390.51
2019-05-18T22:54:25.004Z,99361.42
2019-05-18T22:56:57.499Z,99346.56
2019-05-18T22:59:27.879Z,99334.64
2019-05-18T23:01:58.204Z,99324.28
2019-05-18T23:04:28.601Z,99320.27
2019-05-18T23:06:58.976Z,99325.45
2019-05-18T23:09:29.273Z,99335.98
2019-05-18T23:11:59.886Z,99335.48
2019-05-18T23:14:32.416Z,99332.97
2019-05-18T23:17:03.553Z,99324.28
2019-05-18T23:19:33.862Z,99306.22
2019-05-18T23:22:05.804Z,99283.97
2019-05-18T23:24:36.094Z,99262.75
2019-05-18T23:27:06.397Z,99216.80
2019-05-18T23:29:36.703Z,99270.61
2019-05-18T23:32:08.696Z,99236.20
2019-05-18T23:34:39.003Z,99247.06
2019-05-18T23:37:11.527Z,99267.10
2019-05-18T23:39:41.942Z,99238.87
2019-05-18T23:42:12.657Z,99288.81
2019-05-18T23:44:43.941Z,99303.22
2019-05-18T23:47:14.587Z,99296.54
2019-05-18T23:49:45.079Z,99240.36
2019-05-18T23:52:15.709Z,99250.73
2019-05-18T23:54:45.966Z,99245.05
2019-05-18T23:57:16.329Z,99223.46
2019-05-18T23:59:46.793Z,99229.64
